Time;durP1;ratioP1;P1;durP2;ratioP2;P2;SDS_P1;SDS_P2;PMS_P1;PMS_P2;Temp;Humidity;BMP_temperature;BMP_pressure;BME280_temperature;BME280_humidity;BME280_pressure;Samples;Min_cycle;Max_cycle;Signal;HPM_P1;HPM_P2
2021/04/29 00:00:23;;;;;;;13.95;9.20;;;;;;;5.16;56.79;99777.16;1751540;80;21198;-65
2021/04/29 00:02:52;;;;;;;16.00;8.88;;;;;;;5.11;57.10;99777.03;1770671;80;21181;-62
2021/04/29 00:05:22;;;;;;;15.88;8.65;;;;;;;5.05;57.38;99774.75;1749989;80;21307;-62
2021/04/29 00:07:51;;;;;;;15.03;8.93;;;;;;;5.04;57.40;99771.75;1747185;80;21313;-63
2021/04/29 00:10:21;;;;;;;13.58;9.03;;;;;;;4.98;57.66;99771.35;1817222;77;21124;-63
2021/04/29 00:12:48;;;;;;;14.45;9.18;;;;;;;4.94;57.80;99774.22;1812733;77;21285;-63
2021/04/29 00:15:16;;;;;;;15.43;9.63;;;;;;;4.90;58.06;99767.13;1808100;78;21187;-63
2021/04/29 00:17:43;;;;;;;15.65;9.58;;;;;;;4.85;58.39;99762.95;1811969;77;21558;-63
2021/04/29 00:20:15;;;;;;;16.02;9.08;;;;;;;4.87;58.58;99768.12;1818179;77;21304;-63
2021/04/29 00:22:43;;;;;;;14.98;9.20;;;;;;;4.90;58.53;99767.65;1814450;77;21107;-63
2021/04/29 00:25:11;;;;;;;15.50;8.98;;;;;;;4.86;58.70;99767.81;1814234;77;21627;-63
2021/04/29 00:27:38;;;;;;;15.18;9.13;;;;;;;4.81;59.04;99771.77;1788644;77;21583;-63
2021/04/29 00:30:07;;;;;;;15.88;8.75;;;;;;;4.77;59.02;99770.58;1750147;80;21166;-63
2021/04/29 00:32:34;;;;;;;16.48;9.83;;;;;;;4.71;59.47;99764.22;1809104;77;21172;-63
2021/04/29 00:35:02;;;;;;;20.43;10.32;;;;;;;4.70;59.65;99764.48;1817120;77;21206;-63
2021/04/29 00:37:29;;;;;;;15.55;9.25;;;;;;;4.66;59.71;99763.30;1816526;77;21679;-63
2021/04/29 00:39:56;;;;;;;15.38;9.70;;;;;;;4.63;60.03;99763.77;1817748;77;21599;-63
2021/04/29 00:42:24;;;;;;;15.85;9.35;;;;;;;4.72;59.75;99765.88;1813236;78;21168;-63
2021/04/29 00:44:51;;;;;;;14.00;9.10;;;;;;;4.68;59.89;99759.30;1818829;77;21182;-63
2021/04/29 00:47:18;;;;;;;16.50;10.05;;;;;;;4.66;59.84;99758.73;1815717;78;21192;-64
2021/04/29 00:49:47;;;;;;;17.40;10.32;;;;;;;4.64;59.95;99757.33;1805228;77;21130;-64
2021/04/29 00:52:14;;;;;;;15.93;10.80;;;;;;;4.60;60.00;99761.02;1818541;77;21247;-63
2021/04/29 00:54:42;;;;;;;15.60;10.68;;;;;;;4.59;60.09;99766.63;1745276;80;21159;-63
2021/04/29 00:57:09;;;;;;;16.48;10.58;;;;;;;4.58;60.13;99762.27;1808045;77;21282;-63
2021/04/29 00:59:37;;;;;;;14.70;10.32;;;;;;;4.57;60.22;99764.14;1815896;77;21158;-63
2021/04/29 01:02:05;;;;;;;14.30;10.25;;;;;;;4.62;60.27;99762.94;1814198;77;21279;-63
2021/04/29 01:04:41;;;;;;;15.08;9.75;;;;;;;4.62;60.22;99764.28;1813380;77;21302;-64
2021/04/29 01:07:12;;;;;;;15.70;10.45;;;;;;;4.58;60.63;99759.58;1818030;77;21448;-65
2021/04/29 01:10:03;;;;;;;15.95;10.70;;;;;;;4.50;60.73;99757.52;1813917;77;21147;-65
2021/04/29 01:12:43;;;;;;;19.05;10.78;;;;;;;4.46;60.85;99756.33;1823574;77;21339;-63
2021/04/29 01:15:11;;;;;;;15.78;10.55;;;;;;;4.39;61.11;99752.92;1766196;80;21324;-63
2021/04/29 01:17:42;;;;;;;16.85;10.58;;;;;;;4.35;61.41;99749.07;1750896;80;21133;-63
2021/04/29 01:20:16;;;;;;;16.48;10.38;;;;;;;4.40;61.32;99753.22;1757628;80;21182;-64
2021/04/29 01:23:04;;;;;;;15.25;10.38;;;;;;;4.39;61.33;99758.86;1728724;82;21636;-64
2021/04/29 01:25:32;;;;;;;15.85;10.65;;;;;;;4.32;61.48;99750.06;1754760;80;21177;-64
2021/04/29 01:27:59;;;;;;;16.17;11.00;;;;;;;4.26;61.66;99744.22;1766342;80;21727;-64
2021/04/29 01:30:26;;;;;;;13.65;9.95;;;;;;;4.21;61.70;99753.54;1767805;79;21156;-63
2021/04/29 01:32:54;;;;;;;16.12;10.70;;;;;;;4.15;61.92;99745.83;1761261;80;21266;-62
2021/04/29 01:35:22;;;;;;;15.78;10.40;;;;;;;4.12;62.01;99746.81;1763703;80;21295;-62
2021/04/29 01:37:50;;;;;;;17.15;10.50;;;;;;;4.15;61.95;99756.61;1756549;81;21181;-63
2021/04/29 01:40:17;;;;;;;16.32;10.48;;;;;;;4.17;61.89;99751.83;1760748;80;21162;-63
2021/04/29 01:42:44;;;;;;;15.25;9.78;;;;;;;4.13;62.00;99746.60;1757546;80;21197;-63
2021/04/29 01:45:12;;;;;;;15.20;10.15;;;;;;;4.07;62.21;99747.53;1763159;80;21158;-63
2021/04/29 01:47:39;;;;;;;14.40;10.00;;;;;;;4.01;62.52;99757.84;1755300;80;21157;-63
2021/04/29 01:50:09;;;;;;;14.78;9.60;;;;;;;3.95;62.51;99762.81;1771130;80;21226;-63
2021/04/29 01:52:37;;;;;;;16.00;9.70;;;;;;;3.89;62.35;99757.83;1752441;80;21180;-63
2021/04/29 01:55:07;;;;;;;15.98;10.70;;;;;;;3.84;62.44;99756.33;1754027;80;21136;-63
2021/04/29 01:57:35;;;;;;;15.45;10.40;;;;;;;3.86;62.56;99756.11;1765560;80;21453;-63
2021/04/29 02:00:07;;;;;;;17.50;10.35;;;;;;;3.82;62.58;99758.95;1754211;80;21699;-63
2021/04/29 02:02:34;;;;;;;15.15;10.13;;;;;;;3.74;62.63;99757.39;1759559;80;21293;-64
2021/04/29 02:05:02;;;;;;;16.45;9.95;;;;;;;3.66;63.04;99758.22;1767390;79;21157;-64
2021/04/29 02:07:29;;;;;;;13.58;9.50;;;;;;;3.58;63.44;99756.65;1753275;80;21143;-63
2021/04/29 02:09:57;;;;;;;15.10;9.58;;;;;;;3.52;63.89;99758.91;1760604;80;21647;-63
2021/04/29 02:12:24;;;;;;;13.88;9.75;;;;;;;3.52;63.91;99756.22;1751780;80;21356;-63
2021/04/29 02:14:55;;;;;;;15.70;10.00;;;;;;;3.56;63.73;99763.32;1768465;80;21174;-63
2021/04/29 02:17:34;;;;;;;15.15;9.53;;;;;;;3.49;63.93;99759.36;1752507;80;21247;-63
2021/04/29 02:20:05;;;;;;;15.18;9.75;;;;;;;3.41;64.26;99763.70;1768717;79;21149;-63
2021/04/29 02:22:37;;;;;;;16.25;10.20;;;;;;;3.30;64.78;99762.58;1757509;80;21137;-64
2021/04/29 02:25:05;;;;;;;15.75;10.90;;;;;;;3.24;65.20;99764.00;1756536;80;21138;-64
2021/04/29 02:27:33;;;;;;;15.60;10.13;;;;;;;3.24;65.62;99764.00;1755847;80;21157;-63
2021/04/29 02:30:03;;;;;;;13.20;9.10;;;;;;;3.31;65.59;99764.23;1770867;80;21124;-63
2021/04/29 02:32:30;;;;;;;14.73;9.70;;;;;;;3.36;65.61;99754.97;1752250;80;21176;-63
2021/04/29 02:37:42;;;;;;;17.45;9.38;;;;;;;3.32;65.83;99759.67;1788270;79;23366;-63
2021/04/29 02:40:11;;;;;;;16.45;10.20;;;;;;;3.21;66.04;99764.45;1753973;81;21492;-63
2021/04/29 02:42:41;;;;;;;16.32;9.40;;;;;;;3.20;66.09;99765.48;1751370;80;21565;-63
2021/04/29 02:45:10;;;;;;;16.55;10.03;;;;;;;3.27;66.05;99764.89;1758438;80;21499;-63
2021/04/29 02:47:39;;;;;;;17.10;10.05;;;;;;;3.31;65.80;99762.05;1753314;80;21570;-63
2021/04/29 02:50:09;;;;;;;15.68;10.43;;;;;;;3.27;65.81;99760.34;1742854;81;21146;-63
2021/04/29 02:52:38;;;;;;;17.42;11.48;;;;;;;3.24;66.04;99760.78;1755204;81;21301;-63
2021/04/29 02:55:06;;;;;;;19.90;12.65;;;;;;;3.20;66.04;99759.59;1755071;80;21168;-63
2021/04/29 02:57:34;;;;;;;19.17;11.97;;;;;;;3.19;66.06;99767.89;1758927;80;21190;-63
2021/04/29 03:00:05;;;;;;;17.65;11.65;;;;;;;3.24;65.75;99762.13;1763590;80;21580;-63
2021/04/29 03:02:32;;;;;;;15.80;11.05;;;;;;;3.31;65.56;99762.05;1760099;80;21313;-63
2021/04/29 03:05:00;;;;;;;16.75;11.10;;;;;;;3.29;65.75;99762.30;1752583;80;21199;-63
2021/04/29 03:07:27;;;;;;;14.55;10.75;;;;;;;3.26;65.89;99754.64;1754093;80;21165;-63
2021/04/29 03:09:55;;;;;;;18.40;11.35;;;;;;;3.25;66.21;99762.95;1755867;80;21620;-63
2021/04/29 03:12:22;;;;;;;15.45;10.55;;;;;;;3.22;66.36;99760.20;1759465;80;21580;-63
2021/04/29 03:14:50;;;;;;;15.75;10.68;;;;;;;3.22;66.44;99758.86;1762568;80;21176;-63
2021/04/29 03:17:17;;;;;;;17.95;10.50;;;;;;;3.31;66.36;99764.75;1754933;81;21285;-63
2021/04/29 03:19:45;;;;;;;15.20;9.93;;;;;;;3.39;66.33;99764.45;1758348;80;21194;-63
2021/04/29 03:22:12;;;;;;;14.03;9.20;;;;;;;3.39;66.67;99758.55;1755909;81;21696;-63
2021/04/29 03:24:40;;;;;;;15.88;9.15;;;;;;;3.40;66.73;99755.34;1762986;80;21297;-62
2021/04/29 03:27:10;;;;;;;12.65;9.10;;;;;;;3.39;67.28;99763.94;1755794;80;21161;-65
2021/04/29 03:29:38;;;;;;;12.93;8.55;;;;;;;3.46;67.50;99767.38;1755674;80;21301;-64
2021/04/29 03:32:05;;;;;;;12.68;8.03;;;;;;;3.61;67.22;99767.00;1754038;81;21377;-64
2021/04/29 03:34:34;;;;;;;11.15;7.83;;;;;;;3.74;66.83;99764.13;1753768;80;21681;-64
2021/04/29 03:37:01;;;;;;;12.25;7.90;;;;;;;3.84;66.60;99761.71;1751626;80;21209;-63
2021/04/29 03:39:29;;;;;;;10.70;7.42;;;;;;;3.99;66.40;99768.88;1744297;80;21592;-63
2021/04/29 03:41:56;;;;;;;13.43;8.60;;;;;;;4.18;65.84;99760.19;1745790;81;21301;-63
2021/04/29 03:44:25;;;;;;;12.05;7.22;;;;;;;4.40;65.24;99765.36;1743940;81;21305;-62
2021/04/29 03:46:52;;;;;;;9.68;7.22;;;;;;;4.66;64.59;99764.12;1748040;81;21143;-63
2021/04/29 03:49:20;;;;;;;12.07;7.50;;;;;;;4.88;63.70;99767.07;1740899;81;21261;-63
2021/04/29 03:51:47;;;;;;;11.38;7.47;;;;;;;5.04;63.40;99763.66;1740554;81;21155;-64
2021/04/29 03:54:15;;;;;;;12.98;8.38;;;;;;;5.25;63.14;99773.85;1740409;82;21172;-63
2021/04/29 03:56:42;;;;;;;10.55;7.55;;;;;;;5.40;62.54;99770.67;1741811;82;21169;-63
2021/04/29 03:59:10;;;;;;;15.78;8.38;;;;;;;5.50;62.27;99773.06;1736378;81;21466;-63
2021/04/29 04:01:37;;;;;;;12.60;8.65;;;;;;;5.57;61.98;99776.97;1743145;81;21195;-62
2021/04/29 04:04:05;;;;;;;12.90;8.13;;;;;;;5.60;61.80;99781.10;1735709;82;21513;-62
2021/04/29 04:06:32;;;;;;;13.98;8.23;;;;;;;5.60;62.01;99776.49;1743080;81;21177;-63
2021/04/29 04:09:00;;;;;;;12.20;9.18;;;;;;;5.61;62.15;99764.64;1741704;81;21399;-63
2021/04/29 04:11:28;;;;;;;13.15;9.45;;;;;;;5.64;62.02;99767.39;1741332;82;21736;-63
2021/04/29 04:13:57;;;;;;;17.10;11.12;;;;;;;5.63;62.38;99769.30;1745178;81;21205;-63
2021/04/29 04:16:26;;;;;;;15.53;11.90;;;;;;;5.62;62.53;99766.81;1747030;82;21184;-63
2021/04/29 04:18:54;;;;;;;17.87;11.93;;;;;;;5.63;62.79;99779.27;1738165;81;21341;-63
2021/04/29 04:21:22;;;;;;;18.17;11.73;;;;;;;5.60;62.75;99776.49;1742103;82;21641;-63
2021/04/29 04:23:49;;;;;;;15.70;10.18;;;;;;;5.61;62.97;99767.87;1749811;81;21205;-63
2021/04/29 04:26:16;;;;;;;14.45;10.50;;;;;;;5.68;62.89;99780.19;1723690;82;21169;-63
2021/04/29 04:28:44;;;;;;;15.28;9.45;;;;;;;5.80;62.90;99773.41;1740392;81;21336;-62
2021/04/29 04:31:11;;;;;;;16.73;10.93;;;;;;;5.82;62.38;99771.27;1743514;81;21314;-63
2021/04/29 04:33:39;;;;;;;16.40;10.55;;;;;;;5.87;62.70;99776.82;1742136;80;21177;-63
2021/04/29 04:36:07;;;;;;;16.12;10.68;;;;;;;5.89;62.56;99774.69;1744132;81;21286;-63
2021/04/29 04:38:34;;;;;;;19.07;11.50;;;;;;;5.94;62.53;99775.62;1722171;82;21621;-63
2021/04/29 04:41:03;;;;;;;16.77;10.80;;;;;;;5.98;62.78;99774.61;1740705;81;21592;-63
2021/04/29 04:43:30;;;;;;;15.23;10.18;;;;;;;6.07;62.38;99765.57;1746184;81;21303;-63
2021/04/29 04:45:58;;;;;;;13.85;10.58;;;;;;;6.13;62.01;99769.47;1745110;81;21308;-64
2021/04/29 04:48:25;;;;;;;14.33;10.10;;;;;;;6.13;62.13;99774.09;1742360;81;21590;-63
2021/04/29 04:50:53;;;;;;;13.80;10.15;;;;;;;6.16;62.27;99774.95;1730045;82;21589;-63
2021/04/29 04:53:21;;;;;;;16.52;10.48;;;;;;;6.21;62.37;99771.80;1739260;81;21288;-63
2021/04/29 04:55:50;;;;;;;13.65;9.80;;;;;;;6.27;62.76;99766.77;1745260;82;21162;-64
2021/04/29 04:58:18;;;;;;;14.00;9.63;;;;;;;6.38;62.49;99771.29;1737650;82;21942;-63
2021/04/29 05:00:48;;;;;;;14.40;9.88;;;;;;;6.53;62.20;99775.33;1750343;81;21948;-63
2021/04/29 05:03:18;;;;;;;11.63;8.43;;;;;;;6.63;62.09;99768.73;1743731;81;21591;-63
2021/04/29 05:05:46;;;;;;;13.15;8.80;;;;;;;6.70;61.61;99773.45;1743271;81;21190;-64
2021/04/29 05:08:14;;;;;;;11.10;8.33;;;;;;;6.73;61.39;99779.19;1748098;81;21187;-64
2021/04/29 05:10:41;;;;;;;13.60;8.23;;;;;;;6.76;61.46;99778.72;1734941;81;21594;-63
2021/04/29 05:13:09;;;;;;;11.57;8.35;;;;;;;6.79;61.27;99780.11;1739804;82;21189;-64
2021/04/29 05:15:36;;;;;;;11.90;8.53;;;;;;;6.81;61.41;99779.31;1745804;81;21621;-65
2021/04/29 05:18:05;;;;;;;11.88;7.83;;;;;;;6.90;61.47;99783.27;1733924;82;21236;-61
2021/04/29 05:20:34;;;;;;;10.28;7.53;;;;;;;7.01;60.92;99782.36;1731800;81;21209;-62
2021/04/29 05:23:02;;;;;;;10.78;7.58;;;;;;;7.11;60.69;99779.80;1741017;82;21732;-61
2021/04/29 05:25:29;;;;;;;11.35;7.30;;;;;;;7.15;61.19;99778.25;1735943;82;21194;-61
2021/04/29 05:28:02;;;;;;;10.78;7.47;;;;;;;7.22;60.82;99782.13;1741413;82;21198;-61
2021/04/29 05:30:30;;;;;;;11.33;7.33;;;;;;;7.23;60.54;99780.51;1742796;82;21320;-61
2021/04/29 05:32:57;;;;;;;9.40;6.85;;;;;;;7.23;60.60;99782.39;1745988;82;21188;-61
2021/04/29 05:35:25;;;;;;;10.98;7.85;;;;;;;7.28;61.14;99782.48;1730382;81;21369;-61
2021/04/29 05:37:52;;;;;;;9.20;6.85;;;;;;;7.31;60.58;99780.09;1736748;81;21375;-61
2021/04/29 05:40:19;;;;;;;10.68;7.03;;;;;;;7.43;60.28;99778.64;1738694;81;21491;-61
2021/04/29 05:42:48;;;;;;;10.05;7.35;;;;;;;7.54;60.63;99782.30;1751266;81;21136;-61
2021/04/29 05:45:16;;;;;;;9.00;7.10;;;;;;;7.56;60.08;99773.37;1747748;81;21143;-61
2021/04/29 05:47:43;;;;;;;10.98;7.25;;;;;;;7.68;60.37;99763.25;1740518;81;21184;-61
2021/04/29 05:50:11;;;;;;;8.43;6.85;;;;;;;7.78;60.01;99776.92;1754749;80;21173;-61
2021/04/29 05:52:39;;;;;;;10.93;6.50;;;;;;;7.97;60.18;99775.53;1712984;82;21308;-63
2021/04/29 05:55:08;;;;;;;8.25;6.40;;;;;;;8.17;59.46;99774.93;1743857;80;21638;-61
2021/04/29 05:57:35;;;;;;;11.45;6.67;;;;;;;8.33;58.43;99773.50;1718433;82;21585;-61
2021/04/29 06:00:06;;;;;;;11.12;7.35;;;;;;;8.42;58.21;99762.48;1749628;81;21145;-62
2021/04/29 06:02:35;;;;;;;8.83;6.22;;;;;;;8.50;57.93;99770.70;1751672;81;21240;-61
2021/04/29 06:05:05;;;;;;;9.15;6.75;;;;;;;8.64;58.31;99773.80;1753342;81;21723;-61
2021/04/29 06:07:32;;;;;;;10.78;7.12;;;;;;;8.84;57.75;99772.07;1741728;81;21579;-62
2021/04/29 06:10:00;;;;;;;8.70;6.62;;;;;;;9.06;57.42;99777.40;1753833;81;21376;-62
2021/04/29 06:12:27;;;;;;;10.70;6.65;;;;;;;9.20;57.00;99770.97;1754739;81;21159;-62
2021/04/29 06:14:55;;;;;;;9.30;6.85;;;;;;;9.40;56.33;99778.70;1753736;80;21651;-71
2021/04/29 06:17:23;;;;;;;9.10;6.90;;;;;;;9.48;55.90;99775.49;1753592;81;21125;-62
2021/04/29 06:19:51;;;;;;;9.93;6.53;;;;;;;9.55;56.57;99780.69;1718801;83;21198;-62
2021/04/29 06:22:18;;;;;;;9.83;6.85;;;;;;;9.61;55.80;99783.70;1721649;82;21693;-61
2021/04/29 06:24:46;;;;;;;9.10;6.60;;;;;;;9.79;56.13;99779.70;1752781;81;21717;-61
2021/04/29 06:27:13;;;;;;;10.35;7.12;;;;;;;9.96;55.96;99784.39;1758062;81;21479;-62
2021/04/29 06:29:41;;;;;;;11.85;6.87;;;;;;;10.09;54.65;99777.11;1719395;83;21189;-60
2021/04/29 06:32:08;;;;;;;8.60;6.42;;;;;;;10.23;54.52;99776.91;1749348;81;21617;-61
2021/04/29 06:34:36;;;;;;;10.03;6.80;;;;;;;10.38;54.55;99775.56;1758596;81;21307;-59
2021/04/29 06:37:03;;;;;;;11.05;7.78;;;;;;;10.56;54.46;99775.59;1748552;81;21206;-58
2021/04/29 06:39:32;;;;;;;8.98;6.30;;;;;;;10.84;53.49;99772.34;1754397;81;21173;-60
2021/04/29 06:41:59;;;;;;;8.65;6.47;;;;;;;11.03;53.45;99771.25;1724992;83;21348;-59
2021/04/29 06:44:26;;;;;;;10.32;6.00;;;;;;;11.34;52.93;99764.66;1737637;82;21112;-61
2021/04/29 06:46:55;;;;;;;9.90;6.12;;;;;;;11.67;52.42;99761.02;1754890;82;21109;-61
2021/04/29 06:49:23;;;;;;;9.75;6.10;;;;;;;11.95;50.37;99759.03;1740104;82;21355;-61
2021/04/29 06:51:51;;;;;;;7.28;5.72;;;;;;;12.15;50.64;99769.05;1732933;82;21579;-61
2021/04/29 06:54:18;;;;;;;6.60;5.37;;;;;;;12.24;49.24;99759.97;1755104;80;21259;-60
2021/04/29 06:56:47;;;;;;;8.10;5.62;;;;;;;12.32;48.98;99758.57;1756165;81;21531;-62
2021/04/29 06:59:14;;;;;;;6.60;4.97;;;;;;;12.32;49.01;99758.02;1760967;81;21188;-60
2021/04/29 07:01:43;;;;;;;7.97;5.00;;;;;;;12.17;48.92;99752.65;1766378;81;21141;-61
2021/04/29 07:04:10;;;;;;;7.97;4.90;;;;;;;12.19;49.22;99753.17;1755091;82;21174;-61
2021/04/29 07:06:38;;;;;;;7.50;5.03;;;;;;;12.31;49.19;99760.48;1754002;81;21442;-62
2021/04/29 07:09:06;;;;;;;7.75;5.25;;;;;;;12.52;48.10;99759.79;1752711;80;21320;-60
2021/04/29 07:11:33;;;;;;;7.05;5.00;;;;;;;12.66;47.58;99755.86;1746704;82;21225;-61
2021/04/29 07:14:03;;;;;;;8.20;4.60;;;;;;;12.80;48.07;99760.94;1754105;80;21170;-59
2021/04/29 07:16:30;;;;;;;8.25;4.60;;;;;;;13.03;47.56;99757.48;1754522;81;21286;-60
2021/04/29 07:18:57;;;;;;;5.35;3.92;;;;;;;13.12;46.46;99761.23;1763482;81;21152;-60
2021/04/29 07:21:25;;;;;;;6.53;4.35;;;;;;;13.28;47.56;99760.55;1755035;82;21301;-59
2021/04/29 07:23:52;;;;;;;6.90;4.35;;;;;;;13.47;45.72;99743.66;1762858;80;21157;-60
2021/04/29 07:26:20;;;;;;;6.55;4.10;;;;;;;13.60;45.80;99750.36;1759231;81;21716;-60
2021/04/29 07:28:47;;;;;;;5.35;3.55;;;;;;;13.82;45.49;99743.78;1767519;79;21120;-61
2021/04/29 07:31:15;;;;;;;6.28;4.00;;;;;;;14.04;44.44;99752.27;1760057;81;21542;-62
2021/04/29 07:33:42;;;;;;;5.22;3.92;;;;;;;13.98;45.07;99745.23;1728693;82;21236;-62
2021/04/29 07:36:12;;;;;;;8.23;4.17;;;;;;;14.10;44.63;99748.34;1754145;82;21689;-62
2021/04/29 07:38:40;;;;;;;7.45;4.70;;;;;;;14.12;43.35;99734.37;1742782;82;21838;-61
2021/04/29 07:41:08;;;;;;;6.97;4.37;;;;;;;14.12;44.22;99750.80;1754140;81;21167;-62
2021/04/29 07:43:35;;;;;;;6.60;3.90;;;;;;;14.00;43.79;99745.74;1726987;83;21138;-61
2021/04/29 07:46:03;;;;;;;6.03;3.85;;;;;;;13.94;43.82;99744.19;1696421;83;21157;-61
2021/04/29 07:48:31;;;;;;;6.20;3.92;;;;;;;13.93;43.88;99735.71;1703762;83;21243;-61
2021/04/29 07:50:59;;;;;;;5.12;3.87;;;;;;;13.71;44.42;99744.45;1697190;83;21264;-61
2021/04/29 07:53:27;;;;;;;6.35;4.15;;;;;;;13.54;44.15;99730.99;1703158;83;21759;-61
2021/04/29 07:55:54;;;;;;;5.65;3.83;;;;;;;13.36;44.29;99726.55;1742635;81;21173;-60
2021/04/29 07:58:24;;;;;;;8.08;3.98;;;;;;;13.41;46.08;99737.44;1744550;81;21165;-60
2021/04/29 08:00:53;;;;;;;5.45;3.47;;;;;;;13.49;44.13;99740.09;1728158;82;21293;-61
2021/04/29 08:03:20;;;;;;;6.05;3.72;;;;;;;13.35;44.40;99732.32;1748347;81;21830;-59
2021/04/29 08:05:49;;;;;;;6.08;4.15;;;;;;;13.31;44.94;99734.82;1726266;81;21197;-61
2021/04/29 08:08:17;;;;;;;7.20;3.62;;;;;;;13.18;45.71;99737.42;1732462;82;21835;-60
2021/04/29 08:10:45;;;;;;;6.37;4.22;;;;;;;13.24;45.85;99744.45;1742587;82;21134;-60
2021/04/29 08:13:12;;;;;;;5.85;4.20;;;;;;;13.30;45.72;99744.12;1752168;80;21169;-60
2021/04/29 08:15:42;;;;;;;6.55;4.05;;;;;;;13.26;45.14;99732.67;1757676;81;21126;-61
2021/04/29 08:18:10;;;;;;;7.10;4.25;;;;;;;13.16;45.75;99734.97;1765263;81;21293;-60
2021/04/29 08:20:39;;;;;;;7.67;4.50;;;;;;;13.12;45.92;99741.28;1747273;82;21170;-61
2021/04/29 08:23:06;;;;;;;7.08;4.30;;;;;;;13.17;45.55;99735.23;1746971;81;21157;-60
2021/04/29 08:25:34;;;;;;;6.05;4.87;;;;;;;13.21;45.52;99740.94;1744201;82;21324;-61
2021/04/29 08:28:02;;;;;;;7.25;4.22;;;;;;;13.36;45.52;99732.56;1739464;82;21185;-61
2021/04/29 08:30:30;;;;;;;6.20;4.17;;;;;;;13.55;45.28;99730.72;1738741;81;21181;-61
2021/04/29 08:32:59;;;;;;;5.37;4.03;;;;;;;13.69;44.32;99736.30;1740294;81;21190;-61
2021/04/29 08:35:27;;;;;;;6.33;4.12;;;;;;;13.76;44.95;99735.38;1748935;81;21204;-61
2021/04/29 08:37:55;;;;;;;6.53;3.65;;;;;;;13.87;43.71;99723.20;1763500;81;21149;-61
2021/04/29 08:40:24;;;;;;;5.55;3.58;;;;;;;13.96;43.26;99718.15;1756892;81;21188;-60
2021/04/29 08:42:51;;;;;;;5.12;3.60;;;;;;;14.03;42.65;99717.78;1743208;82;21187;-61
2021/04/29 08:45:19;;;;;;;6.75;4.53;;;;;;;14.04;43.71;99711.75;1747232;82;21618;-60
2021/04/29 08:47:50;;;;;;;4.53;3.55;;;;;;;14.08;42.59;99721.01;1747102;82;21182;-61
2021/04/29 08:50:19;;;;;;;5.95;3.42;;;;;;;14.07;42.56;99714.72;1743552;81;21279;-60
2021/04/29 08:52:47;;;;;;;5.87;3.55;;;;;;;14.04;42.62;99683.84;1740700;82;21172;-60
2021/04/29 08:55:20;;;;;;;5.45;3.55;;;;;;;14.42;42.71;99706.56;1721552;81;21379;-60
2021/04/29 08:57:48;;;;;;;6.12;2.98;;;;;;;14.54;41.11;99707.48;1721047;82;21191;-61
2021/04/29 09:00:18;;;;;;;8.03;3.60;;;;;;;14.58;41.84;99693.45;1744701;81;21152;-61
2021/04/29 09:02:45;;;;;;;7.35;3.42;;;;;;;14.69;40.59;99683.95;1748910;81;21308;-60
2021/04/29 09:05:20;;;;;;;4.58;2.90;;;;;;;14.72;41.25;99695.13;1746227;82;21173;-60
2021/04/29 09:08:08;;;;;;;4.10;2.62;;;;;;;14.81;40.69;99676.88;1750711;81;21310;-61
2021/04/29 09:10:41;;;;;;;5.33;3.30;;;;;;;14.87;40.63;99688.02;1759167;81;21185;-61
2021/04/29 09:13:23;;;;;;;5.60;3.17;;;;;;;14.79;40.43;99676.38;1750710;81;21681;-63
2021/04/29 09:15:50;;;;;;;5.75;3.25;;;;;;;14.62;40.74;99670.64;1746836;82;21254;-62
2021/04/29 09:18:19;;;;;;;5.80;3.00;;;;;;;14.64;41.49;99662.92;1751205;81;21190;-62
2021/04/29 09:20:55;;;;;;;5.92;3.20;;;;;;;14.73;40.68;99661.70;1739773;82;21125;-62
2021/04/29 09:23:32;;;;;;;4.53;2.70;;;;;;;14.91;40.03;99667.68;1743523;81;21185;-63
2021/04/29 09:26:11;;;;;;;6.37;2.95;;;;;;;15.03;39.34;99659.77;1722889;82;21206;-60
2021/04/29 09:28:50;;;;;;;4.70;3.30;;;;;;;15.17;40.27;99657.03;1738663;82;21122;-63
2021/04/29 09:31:21;;;;;;;4.08;2.80;;;;;;;15.30;40.31;99642.53;1744109;81;21291;-62
2021/04/29 09:33:57;;;;;;;6.47;3.33;;;;;;;15.45;39.85;99653.98;1747835;81;21340;-62
2021/04/29 09:36:40;;;;;;;5.85;3.00;;;;;;;15.44;38.87;99652.36;1747067;82;21662;-61
2021/04/29 09:39:11;;;;;;;4.50;3.20;;;;;;;15.40;39.96;99640.39;1756973;81;21157;-61
2021/04/29 09:41:47;;;;;;;3.98;2.90;;;;;;;15.50;40.16;99655.03;1767762;81;21146;-62
2021/04/29 09:44:18;;;;;;;4.47;2.65;;;;;;;15.38;38.56;99636.31;1742373;81;21213;-61
2021/04/29 09:46:48;;;;;;;4.28;3.10;;;;;;;15.30;39.54;99643.90;1731730;81;21165;-61
2021/04/29 09:52:23;;;;;;;4.35;2.58;;;;;;;15.62;40.00;99630.65;1813693;79;23477;-62
2021/04/29 09:54:54;;;;;;;5.33;2.80;;;;;;;15.62;38.52;99627.35;1761355;80;21198;-62
2021/04/29 09:57:28;;;;;;;5.15;3.70;;;;;;;15.56;39.23;99628.55;1745881;82;21177;-61
2021/04/29 10:02:31;;;;;;;4.12;2.90;;;;;;;15.56;39.02;99619.51;1777202;79;23237;-62
2021/04/29 10:04:59;;;;;;;5.90;3.15;;;;;;;15.62;37.97;99608.70;1732952;81;21565;-61
2021/04/29 10:07:26;;;;;;;5.60;2.92;;;;;;;15.72;38.63;99617.52;1706960;83;21631;-62
2021/04/29 10:09:53;;;;;;;5.78;2.83;;;;;;;15.74;37.49;99610.33;1650483;87;21180;-61
2021/04/29 10:12:21;;;;;;;6.28;3.20;;;;;;;15.71;39.04;99599.98;1655161;87;21816;-61
2021/04/29 10:14:51;;;;;;;6.22;2.58;;;;;;;15.63;37.27;99601.52;1640730;85;21423;-62
2021/04/29 10:17:20;;;;;;;4.65;2.67;;;;;;;15.60;37.17;99599.95;1678806;85;21172;-62
2021/04/29 10:19:54;;;;;;;4.25;2.70;;;;;;;15.58;37.91;99599.45;1678010;85;21334;-61
2021/04/29 10:22:22;;;;;;;4.35;2.50;;;;;;;15.73;38.31;99595.80;1680034;85;21587;-61
2021/04/29 10:24:50;;;;;;;4.03;2.72;;;;;;;15.81;38.10;99597.00;1673385;84;21161;-61
2021/04/29 10:27:25;;;;;;;4.03;2.70;;;;;;;15.87;36.36;99593.04;1678215;85;21614;-62
2021/04/29 10:30:13;;;;;;;5.28;2.58;;;;;;;15.80;36.62;99583.05;1662892;84;21227;-62
2021/04/29 10:32:40;;;;;;;4.37;2.62;;;;;;;15.87;37.86;99591.66;1660337;85;21193;-62
2021/04/29 10:35:22;;;;;;;4.40;2.80;;;;;;;15.76;37.42;99584.22;1665628;84;21201;-61
2021/04/29 10:37:59;;;;;;;5.50;2.70;;;;;;;15.78;36.52;99578.41;1635471;87;21160;-61
2021/04/29 10:40:35;;;;;;;6.35;2.62;;;;;;;15.86;37.23;99573.00;1656149;86;21211;-62
2021/04/29 10:43:03;;;;;;;5.85;2.70;;;;;;;15.97;37.01;99574.95;1659333;86;21315;-63
2021/04/29 10:45:31;;;;;;;4.72;3.00;;;;;;;15.94;36.27;99575.58;1641557;87;21250;-62
2021/04/29 10:48:09;;;;;;;8.93;3.10;;;;;;;15.88;36.47;99576.23;1630011;87;21175;-62
2021/04/29 10:50:48;;;;;;;4.45;3.00;;;;;;;15.87;35.72;99562.84;1665474;85;21247;-62
2021/04/29 10:53:28;;;;;;;5.15;2.85;;;;;;;15.76;36.46;99566.38;1690539;85;21648;-62
2021/04/29 10:56:02;;;;;;;5.10;3.27;;;;;;;15.75;37.53;99557.08;1670696;85;21600;-62
2021/04/29 10:58:30;;;;;;;5.20;3.20;;;;;;;15.81;37.67;99551.71;1655699;87;21197;-61
2021/04/29 11:01:16;;;;;;;5.03;3.08;;;;;;;16.06;37.89;99564.83;1652559;86;21339;-60
2021/04/29 11:03:49;;;;;;;6.30;2.87;;;;;;;16.31;36.31;99562.02;1643831;87;21268;-61
2021/04/29 11:06:18;;;;;;;5.17;3.47;;;;;;;16.52;37.75;99568.61;1617214;87;21213;-61
2021/04/29 11:08:49;;;;;;;4.37;2.98;;;;;;;16.65;36.51;99560.08;1643961;87;21247;-60
2021/04/29 11:11:33;;;;;;;6.58;3.22;;;;;;;16.59;36.51;99568.19;1644028;87;21230;-60
2021/04/29 11:14:12;;;;;;;3.80;2.50;;;;;;;16.58;35.57;99556.38;1643602;87;21243;-60
2021/04/29 11:16:58;;;;;;;4.70;3.00;;;;;;;16.56;36.44;99556.45;1643551;87;21190;-60
2021/04/29 11:19:56;;;;;;;6.62;3.10;;;;;;;16.59;37.53;99556.63;1643536;87;21235;-60
2021/04/29 11:22:33;;;;;;;4.80;2.85;;;;;;;16.56;35.60;99544.91;1639345;87;21244;-59
2021/04/29 11:25:01;;;;;;;3.85;2.80;;;;;;;16.58;36.98;99556.38;1643608;87;21239;-60
2021/04/29 11:27:31;;;;;;;6.10;3.33;;;;;;;16.75;35.45;99546.05;1643698;87;21237;-61
2021/04/29 11:30:08;;;;;;;4.37;2.83;;;;;;;16.76;34.96;99542.16;1643689;86;21324;-61
2021/04/29 11:32:37;;;;;;;3.95;2.60;;;;;;;16.87;35.85;99527.81;1643640;87;21188;-61
2021/04/29 11:35:25;;;;;;;5.00;2.90;;;;;;;17.03;37.11;99548.02;1643483;87;21261;-61
2021/04/29 11:37:52;;;;;;;4.87;2.83;;;;;;;17.17;35.89;99539.08;1643692;87;21720;-61
2021/04/29 11:40:20;;;;;;;5.42;3.30;;;;;;;17.26;34.68;99522.01;1643449;87;21201;-61
2021/04/29 11:42:52;;;;;;;7.25;2.70;;;;;;;17.17;35.18;99526.14;1643443;87;21178;-61
2021/04/29 11:45:30;;;;;;;6.92;3.30;;;;;;;17.05;35.42;99527.31;1643470;87;21189;-61
2021/04/29 11:48:10;;;;;;;7.03;3.10;;;;;;;16.90;35.82;99529.92;1643404;86;21612;-61
2021/04/29 11:51:09;;;;;;;3.80;2.90;;;;;;;17.05;36.74;99527.31;1643650;86;21193;-61